createdAt,value
2018-12-11T00:00:53.192Z,19.00
2018-12-11T00:03:22.363Z,18.73
2018-12-11T00:05:51.540Z,24.20
2018-12-11T00:08:20.768Z,19.87
2018-12-11T00:10:49.930Z,21.67
2018-12-11T00:13:19.199Z,20.27
2018-12-11T00:15:48.368Z,13.30
2018-12-11T00:18:17.536Z,26.30
2018-12-11T00:20:46.743Z,11.23
2018-12-11T00:23:15.911Z,16.73
2018-12-11T00:25:45.228Z,16.40
2018-12-11T00:28:14.372Z,17.80
2018-12-11T00:30:43.543Z,20.90
2018-12-11T00:33:12.742Z,15.87
2018-12-11T00:35:41.883Z,16.03
2018-12-11T00:38:11.101Z,23.53
2018-12-11T00:40:40.329Z,15.23
2018-12-11T00:43:09.562Z,23.70
2018-12-11T00:45:38.719Z,17.13
2018-12-11T00:48:07.929Z,16.53
2018-12-11T00:50:37.135Z,15.43
2018-12-11T00:53:06.340Z,15.30
2018-12-11T00:55:35.570Z,37.50
2018-12-11T00:58:04.813Z,25.50
2018-12-11T01:00:34.032Z,12.27
2018-12-11T01:03:03.251Z,28.50
2018-12-11T01:05:32.435Z,23.13
2018-12-11T01:08:01.654Z,24.50
2018-12-11T01:10:30.848Z,14.03
2018-12-11T01:12:59.955Z,28.67
2018-12-11T01:15:29.416Z,22.53
2018-12-11T01:17:59.257Z,21.20
2018-12-11T01:20:29.152Z,26.30
2018-12-11T01:22:58.400Z,21.87
2018-12-11T01:25:27.752Z,19.43
2018-12-11T01:27:56.981Z,23.27
2018-12-11T01:30:26.107Z,21.50
2018-12-11T01:32:55.298Z,21.17
2018-12-11T01:35:24.421Z,29.20
2018-12-11T01:37:53.612Z,23.53
2018-12-11T01:40:22.854Z,35.47
2018-12-11T01:42:52.024Z,24.93
2018-12-11T01:45:21.219Z,25.10
2018-12-11T01:47:50.428Z,30.00
2018-12-11T01:50:19.625Z,20.67
2018-12-11T01:52:48.911Z,17.77
2018-12-11T01:55:18.091Z,36.10
2018-12-11T01:57:47.346Z,17.33
2018-12-11T02:00:16.520Z,22.73
2018-12-11T02:02:45.704Z,21.47
2018-12-11T02:05:14.895Z,26.53
2018-12-11T02:07:44.104Z,26.93
2018-12-11T02:10:13.298Z,35.23
2018-12-11T02:12:42.487Z,39.07
2018-12-11T02:15:11.990Z,22.30
2018-12-11T02:17:41.319Z,26.40
2018-12-11T02:20:11.342Z,30.37
2018-12-11T02:22:40.544Z,13.97
2018-12-11T02:25:09.754Z,23.20
2018-12-11T02:27:39.007Z,24.93
2018-12-11T02:30:08.180Z,26.90
2018-12-11T02:32:37.479Z,34.17
2018-12-11T02:35:06.943Z,19.40
2018-12-11T02:37:36.170Z,16.50
2018-12-11T02:40:05.952Z,21.20
2018-12-11T02:42:35.130Z,26.77
2018-12-11T02:45:04.660Z,16.87
2018-12-11T02:47:33.815Z,19.53
2018-12-11T02:50:02.982Z,22.47
2018-12-11T02:52:32.131Z,26.10
2018-12-11T02:55:01.437Z,29.00
2018-12-11T02:57:30.689Z,26.87
2018-12-11T02:59:59.901Z,18.13
2018-12-11T03:02:29.122Z,24.57
2018-12-11T03:04:58.296Z,41.60
2018-12-11T03:07:27.502Z,30.17
2018-12-11T03:09:56.687Z,29.37
2018-12-11T03:12:25.921Z,23.30
2018-12-11T03:14:55.096Z,29.77
2018-12-11T03:17:24.258Z,24.20
2018-12-11T03:19:53.503Z,19.20
2018-12-11T03:22:22.709Z,31.67
2018-12-11T03:24:51.971Z,24.80
2018-12-11T03:27:21.125Z,30.73
2018-12-11T03:29:50.255Z,20.07
2018-12-11T03:32:19.448Z,26.27
2018-12-11T03:34:48.720Z,17.27
2018-12-11T03:37:17.890Z,20.60
2018-12-11T03:39:47.103Z,30.27
2018-12-11T03:42:16.299Z,26.93
2018-12-11T03:44:45.491Z,24.97
2018-12-11T03:47:14.724Z,30.17
2018-12-11T03:49:43.900Z,16.87
2018-12-11T03:52:13.073Z,25.63
2018-12-11T03:54:42.292Z,21.60
2018-12-11T03:57:11.403Z,26.90
2018-12-11T03:59:40.580Z,19.63
2018-12-11T04:02:09.854Z,22.03
2018-12-11T04:04:39.029Z,29.33
2018-12-11T04:07:08.200Z,24.70
2018-12-11T04:09:37.412Z,17.50
2018-12-11T04:12:07.000Z,24.17
2018-12-11T04:14:36.647Z,15.77
2018-12-11T04:17:06.026Z,27.53
2018-12-11T04:19:35.264Z,22.63
2018-12-11T04:22:04.357Z,21.00
2018-12-11T04:24:33.568Z,29.87
2018-12-11T04:27:02.888Z,30.87
2018-12-11T04:29:32.101Z,17.80
2018-12-11T04:32:01.282Z,24.57
2018-12-11T04:34:30.410Z,28.60
2018-12-11T04:36:59.644Z,22.07
2018-12-11T04:39:33.743Z,26.73
2018-12-11T04:41:59.930Z,21.93
2018-12-11T04:44:29.114Z,34.40
2018-12-11T04:46:58.280Z,28.67
2018-12-11T04:49:27.434Z,19.83
2018-12-11T04:51:56.603Z,30.77
2018-12-11T04:54:25.983Z,23.70
2018-12-11T04:56:55.159Z,25.80
2018-12-11T04:59:24.265Z,32.10
2018-12-11T05:01:53.463Z,33.47
2018-12-11T05:04:22.652Z,27.37
2018-12-11T05:06:51.803Z,27.33
2018-12-11T05:09:21.003Z,28.27
2018-12-11T05:11:50.250Z,22.53
2018-12-11T05:14:19.422Z,19.87
2018-12-11T05:16:48.669Z,32.63
2018-12-11T05:19:17.935Z,36.57
2018-12-11T05:21:47.076Z,22.80
2018-12-11T05:24:16.149Z,23.33
2018-12-11T05:26:45.363Z,28.37
2018-12-11T05:29:14.525Z,24.60
2018-12-11T05:31:43.784Z,25.47
2018-12-11T05:34:12.903Z,29.10
2018-12-11T05:36:42.188Z,34.77
2018-12-11T05:39:11.538Z,30.03
2018-12-11T05:41:40.639Z,30.80
2018-12-11T05:44:09.724Z,36.83
2018-12-11T05:46:38.995Z,23.30
2018-12-11T05:49:08.216Z,31.27
2018-12-11T05:51:37.554Z,16.43
2018-12-11T05:54:06.775Z,29.47
2018-12-11T05:56:35.917Z,39.87
2018-12-11T05:59:05.189Z,29.80
2018-12-11T06:01:34.483Z,33.53
2018-12-11T06:04:03.808Z,24.43
2018-12-11T06:06:33.079Z,32.57
2018-12-11T06:09:02.245Z,36.67
2018-12-11T06:11:31.448Z,29.37
2018-12-11T06:14:01.294Z,24.47
2018-12-11T06:16:31.006Z,14.07
2018-12-11T06:19:00.296Z,19.43
2018-12-11T06:21:29.509Z,16.43
2018-12-11T06:23:58.619Z,21.47
2018-12-11T06:26:27.830Z,29.77
2018-12-11T06:28:57.135Z,24.17
2018-12-11T06:31:26.276Z,26.23
2018-12-11T06:33:55.832Z,22.60
2018-12-11T06:36:25.073Z,21.67
2018-12-11T06:38:54.219Z,21.53
2018-12-11T06:41:23.416Z,22.47
2018-12-11T06:43:52.632Z,30.37
2018-12-11T06:46:21.828Z,21.33
2018-12-11T06:48:50.954Z,19.20
2018-12-11T06:51:20.204Z,22.33
2018-12-11T06:53:49.319Z,21.97
2018-12-11T06:56:18.532Z,21.23
2018-12-11T06:58:47.731Z,19.77
2018-12-11T07:01:16.895Z,23.80
2018-12-11T07:03:46.091Z,16.80
2018-12-11T07:06:15.230Z,35.13
2018-12-11T07:08:44.390Z,23.90
2018-12-11T07:11:13.595Z,20.83
2018-12-11T07:13:42.803Z,17.70
2018-12-11T07:16:12.002Z,29.90
2018-12-11T07:18:41.203Z,31.40
2018-12-11T07:21:10.417Z,25.60
2018-12-11T07:23:39.683Z,30.03
2018-12-11T07:26:08.883Z,28.17
2018-12-11T07:28:38.077Z,16.27
2018-12-11T07:31:07.310Z,28.77
2018-12-11T07:33:36.510Z,30.70
2018-12-11T07:36:05.794Z,29.10
2018-12-11T07:38:34.942Z,27.37
2018-12-11T07:41:04.212Z,23.93
2018-12-11T07:43:33.611Z,24.30
2018-12-11T07:46:02.771Z,28.27
2018-12-11T07:48:32.004Z,20.70
2018-12-11T07:51:01.204Z,28.60
2018-12-11T07:53:30.585Z,26.63
2018-12-11T07:56:00.404Z,20.00
2018-12-11T07:58:29.952Z,13.20
2018-12-11T08:00:59.151Z,16.43
2018-12-11T08:03:28.375Z,21.70
2018-12-11T08:05:57.545Z,17.37
2018-12-11T08:08:26.821Z,17.83
2018-12-11T08:10:56.027Z,31.60
2018-12-11T08:13:25.245Z,16.10
2018-12-11T08:15:54.458Z,25.47
2018-12-11T08:18:23.589Z,17.83
2018-12-11T08:20:52.685Z,19.20
2018-12-11T08:23:21.928Z,28.87
2018-12-11T08:25:51.239Z,19.83
2018-12-11T08:28:20.419Z,20.47
2018-12-11T08:30:49.730Z,16.87
2018-12-11T08:33:18.960Z,25.63
2018-12-11T08:35:48.168Z,13.67
2018-12-11T08:38:17.287Z,13.17
2018-12-11T08:40:46.506Z,31.87
2018-12-11T08:43:15.696Z,16.73
2018-12-11T08:45:44.895Z,20.53
2018-12-11T08:48:13.960Z,23.77
2018-12-11T08:50:43.165Z,20.03
2018-12-11T08:53:12.402Z,25.70
2018-12-11T08:55:41.621Z,13.60
2018-12-11T08:58:10.826Z,24.00
2018-12-11T09:00:40.047Z,19.17
2018-12-11T09:03:09.294Z,22.80
2018-12-11T09:05:38.533Z,20.00
2018-12-11T09:08:07.731Z,19.07
2018-12-11T09:10:36.920Z,24.03
2018-12-11T09:13:06.036Z,13.83
2018-12-11T09:15:35.188Z,14.73
2018-12-11T09:18:04.339Z,16.63
2018-12-11T09:20:33.508Z,16.93
2018-12-11T09:23:02.675Z,29.77
2018-12-11T09:25:31.905Z,25.80
2018-12-11T09:28:01.183Z,17.23
2018-12-11T09:30:30.431Z,17.70
2018-12-11T09:32:59.649Z,20.27
2018-12-11T09:35:28.840Z,27.00
2018-12-11T09:37:58.087Z,22.87
2018-12-11T09:40:27.236Z,17.23
2018-12-11T09:42:56.410Z,15.00
2018-12-11T09:45:25.583Z,10.93
2018-12-11T09:47:54.695Z,17.80
2018-12-11T09:50:23.871Z,25.77
2018-12-11T09:52:53.056Z,16.70
2018-12-11T09:55:22.296Z,13.70
2018-12-11T09:57:51.468Z,25.23
2018-12-11T10:00:25.794Z,24.83
2018-12-11T10:02:51.938Z,15.13
2018-12-11T10:05:21.148Z,27.60
2018-12-11T10:07:50.447Z,26.53
2018-12-11T10:10:19.672Z,19.27
2018-12-11T10:12:48.919Z,18.87
2018-12-11T10:15:18.110Z,22.67
2018-12-11T10:17:47.354Z,11.83
2018-12-11T10:20:16.952Z,17.73
2018-12-11T10:22:46.154Z,18.77
2018-12-11T10:25:15.572Z,16.13
2018-12-11T10:27:44.755Z,13.17
2018-12-11T10:30:14.549Z,21.37
2018-12-11T10:32:46.141Z,24.40
2018-12-11T10:35:15.406Z,11.83
2018-12-11T10:37:44.624Z,10.60
2018-12-11T10:40:13.902Z,20.40
2018-12-11T10:42:43.068Z,12.33
2018-12-11T10:45:12.322Z,20.90
2018-12-11T10:47:41.619Z,20.70
2018-12-11T10:50:10.834Z,13.03
2018-12-11T10:52:40.392Z,12.50
2018-12-11T10:55:09.574Z,17.27
2018-12-11T10:57:38.872Z,10.47
2018-12-11T11:00:11.814Z,9.17
2018-12-11T11:02:45.076Z,21.87
2018-12-11T11:05:14.309Z,15.57
2018-12-11T11:07:43.766Z,10.27
2018-12-11T11:10:13.073Z,17.40
2018-12-11T11:12:42.293Z,8.03
2018-12-11T11:15:11.572Z,14.63
2018-12-11T11:17:40.899Z,14.27
2018-12-11T11:20:10.153Z,16.00
2018-12-11T11:22:39.327Z,15.13
2018-12-11T11:25:08.587Z,7.37
2018-12-11T11:27:37.886Z,16.00
2018-12-11T11:30:08.311Z,18.80
2018-12-11T11:32:37.514Z,10.57
2018-12-11T11:35:07.660Z,14.93
2018-12-11T11:37:36.829Z,8.70
2018-12-11T11:40:07.053Z,25.03
2018-12-11T11:42:36.590Z,13.40
2018-12-11T11:45:07.234Z,12.87
2018-12-11T11:47:36.463Z,18.40
2018-12-11T11:50:08.124Z,12.90
2018-12-11T11:52:37.354Z,15.07
2018-12-11T11:55:06.780Z,9.27
2018-12-11T11:57:35.983Z,13.50
2018-12-11T12:00:08.060Z,15.23
2018-12-11T12:02:37.211Z,15.20
2018-12-11T12:05:07.054Z,13.03
2018-12-11T12:07:36.239Z,14.70
2018-12-11T12:10:08.775Z,11.00
2018-12-11T12:12:37.945Z,10.70
2018-12-11T12:15:08.735Z,9.40
2018-12-11T12:17:38.153Z,16.03
2018-12-11T12:20:09.961Z,19.93
2018-12-11T12:22:39.214Z,11.97
2018-12-11T12:25:08.414Z,10.87
2018-12-11T12:27:37.544Z,10.30
2018-12-11T12:30:08.072Z,6.27
2018-12-11T12:32:37.303Z,10.30
2018-12-11T12:35:07.202Z,9.00
2018-12-11T12:37:36.436Z,5.07
2018-12-11T12:40:05.781Z,5.77
2018-12-11T12:42:34.952Z,10.73
2018-12-11T12:45:04.252Z,7.07
2018-12-11T12:47:33.509Z,6.40
2018-12-11T12:50:02.610Z,10.80
2018-12-11T12:52:31.709Z,8.30
2018-12-11T12:55:00.962Z,7.60
2018-12-11T12:57:30.206Z,12.53
2018-12-11T12:59:59.433Z,9.47
2018-12-11T13:02:28.737Z,11.27
2018-12-11T13:04:57.844Z,13.03
2018-12-11T13:07:26.960Z,14.77
2018-12-11T13:09:56.107Z,17.30
2018-12-11T13:12:25.265Z,14.10
2018-12-11T13:14:54.404Z,8.20
2018-12-11T13:17:23.618Z,9.73
2018-12-11T13:19:52.799Z,6.10
2018-12-11T13:22:21.974Z,10.90
2018-12-11T13:24:51.178Z,12.40
2018-12-11T13:27:20.370Z,4.53
2018-12-11T13:29:49.529Z,8.60
2018-12-11T13:32:18.808Z,3.73
2018-12-11T13:34:47.951Z,6.50
2018-12-11T13:37:17.223Z,5.23
2018-12-11T13:39:46.357Z,17.10
2018-12-11T13:42:15.611Z,13.87
2018-12-11T13:44:44.760Z,8.73
2018-12-11T13:47:14.226Z,11.00
2018-12-11T13:49:43.387Z,9.03
2018-12-11T13:52:12.620Z,11.30
2018-12-11T13:54:41.852Z,13.53
2018-12-11T13:57:10.981Z,9.27
2018-12-11T13:59:40.139Z,5.23
2018-12-11T14:02:09.274Z,9.00
2018-12-11T14:04:38.514Z,6.10
2018-12-11T14:07:07.948Z,8.67
2018-12-11T14:09:40.907Z,10.90
2018-12-11T14:12:11.179Z,9.20
2018-12-11T14:14:40.460Z,9.20
2018-12-11T14:17:09.686Z,9.27
2018-12-11T14:19:38.876Z,6.47
2018-12-11T14:22:08.110Z,9.50
2018-12-11T14:24:37.311Z,7.50
2018-12-11T14:27:06.476Z,8.57
2018-12-11T14:29:35.622Z,11.50
2018-12-11T14:32:05.188Z,9.43
2018-12-11T14:34:34.385Z,7.47
2018-12-11T14:37:03.663Z,10.87
2018-12-11T14:39:32.825Z,7.83
2018-12-11T14:42:01.913Z,13.03
2018-12-11T14:44:31.081Z,8.70
2018-12-11T14:47:00.368Z,10.40
2018-12-11T14:49:29.538Z,7.47
2018-12-11T14:51:58.784Z,7.90
2018-12-11T14:54:27.960Z,8.57
2018-12-11T14:56:57.127Z,10.20
2018-12-11T14:59:26.220Z,6.13
2018-12-11T15:01:55.389Z,14.30
2018-12-11T15:04:24.536Z,3.43
2018-12-11T15:06:53.739Z,4.40
2018-12-11T15:09:28.183Z,15.03
2018-12-11T15:11:57.360Z,6.13
2018-12-11T15:14:26.565Z,3.83
2018-12-11T15:16:55.753Z,7.73
2018-12-11T15:19:24.944Z,9.87
2018-12-11T15:21:54.098Z,5.30
2018-12-11T15:24:23.279Z,8.07
2018-12-11T15:26:52.474Z,12.53
2018-12-11T15:29:21.658Z,8.40
2018-12-11T15:31:50.715Z,7.33
2018-12-11T15:34:19.828Z,4.83
2018-12-11T15:36:49.072Z,11.10
2018-12-11T15:39:18.275Z,9.30
2018-12-11T15:41:47.414Z,4.53
2018-12-11T15:44:16.585Z,4.23
2018-12-11T15:46:46.042Z,6.87
2018-12-11T15:49:15.315Z,3.27
2018-12-11T15:51:44.768Z,7.10
2018-12-11T15:54:13.999Z,4.57
2018-12-11T15:56:43.411Z,6.90
2018-12-11T15:59:12.844Z,2.70
2018-12-11T16:01:42.080Z,4.60
2018-12-11T16:04:11.251Z,4.90
2018-12-11T16:06:40.468Z,11.80
2018-12-11T16:09:11.687Z,5.90
2018-12-11T16:11:40.997Z,5.73
2018-12-11T16:14:10.148Z,10.13
2018-12-11T16:16:39.340Z,4.30
2018-12-11T16:19:08.524Z,7.10
2018-12-11T16:21:37.630Z,5.37
2018-12-11T16:24:06.807Z,4.43
2018-12-11T16:26:36.023Z,7.00
2018-12-11T16:29:05.193Z,6.27
2018-12-11T16:31:34.387Z,12.53
2018-12-11T16:34:03.650Z,5.87
2018-12-11T16:36:32.843Z,7.47
2018-12-11T16:39:02.048Z,2.17
2018-12-11T16:41:31.235Z,4.83
2018-12-11T16:44:00.353Z,8.07
2018-12-11T16:46:29.688Z,5.90
2018-12-11T16:48:58.859Z,4.37
2018-12-11T16:51:28.024Z,4.70
2018-12-11T16:53:57.127Z,9.93
2018-12-11T16:56:27.035Z,6.73
2018-12-11T16:58:56.468Z,8.50
2018-12-11T17:01:25.636Z,9.57
2018-12-11T17:03:54.839Z,3.60
2018-12-11T17:06:23.987Z,5.77
2018-12-11T17:08:53.087Z,4.77
2018-12-11T17:11:22.282Z,7.90
2018-12-11T17:13:51.454Z,2.93
2018-12-11T17:16:20.706Z,11.03
2018-12-11T17:18:49.940Z,8.67
2018-12-11T17:21:19.252Z,5.53
2018-12-11T17:23:48.380Z,5.77
2018-12-11T17:26:17.455Z,9.37
2018-12-11T17:28:46.615Z,11.60
2018-12-11T17:31:19.354Z,9.97
2018-12-11T17:33:48.499Z,10.17
2018-12-11T17:36:17.692Z,6.10
2018-12-11T17:38:46.911Z,6.43
2018-12-11T17:41:16.117Z,8.00
2018-12-11T17:43:45.392Z,6.07
2018-12-11T17:46:14.624Z,4.80
2018-12-11T17:48:43.859Z,6.30
2018-12-11T17:51:13.421Z,4.53
2018-12-11T17:53:42.998Z,6.50
2018-12-11T17:56:12.139Z,11.13
2018-12-11T17:58:41.249Z,7.33
2018-12-11T18:01:10.694Z,7.00
2018-12-11T18:03:39.937Z,13.17
2018-12-11T18:06:09.559Z,9.10
2018-12-11T18:08:38.752Z,6.03
2018-12-11T18:11:07.976Z,9.47
2018-12-11T18:13:37.244Z,13.33
2018-12-11T18:16:06.572Z,5.97
2018-12-11T18:18:35.751Z,7.03
2018-12-11T18:21:04.931Z,4.80
2018-12-11T18:23:34.079Z,14.03
2018-12-11T18:26:03.234Z,12.03
2018-12-11T18:28:32.479Z,9.73
2018-12-11T18:31:01.665Z,14.13
2018-12-11T18:33:30.844Z,7.53
2018-12-11T18:36:00.120Z,7.90
2018-12-11T18:38:29.435Z,8.27
2018-12-11T18:40:58.750Z,7.30
2018-12-11T18:43:27.913Z,6.67
2018-12-11T18:45:57.129Z,5.93
2018-12-11T18:48:26.356Z,8.47
2018-12-11T18:50:55.714Z,6.00
2018-12-11T18:53:24.993Z,9.93
2018-12-11T18:55:54.217Z,8.13
2018-12-11T18:58:24.725Z,7.53
2018-12-11T19:00:54.208Z,7.30
2018-12-11T19:03:23.502Z,16.40
2018-12-11T19:05:52.735Z,14.63
2018-12-11T19:08:21.988Z,5.87
2018-12-11T19:10:51.220Z,9.50
2018-12-11T19:13:20.435Z,7.23
2018-12-11T19:15:50.061Z,6.07
2018-12-11T19:18:19.539Z,11.30
2018-12-11T19:20:48.857Z,9.43
2018-12-11T19:23:44.185Z,6.13
2018-12-11T19:26:13.830Z,11.53
2018-12-11T19:28:42.992Z,7.00
2018-12-11T19:31:12.142Z,10.53
2018-12-11T19:33:41.331Z,12.37
2018-12-11T19:36:10.518Z,9.90
2018-12-11T19:38:39.711Z,8.97
2018-12-11T19:41:08.909Z,7.50
2018-12-11T19:43:38.130Z,8.43
2018-12-11T19:46:07.308Z,10.77
2018-12-11T19:48:36.583Z,20.10
2018-12-11T19:51:05.928Z,22.43
2018-12-11T19:53:35.023Z,16.30
2018-12-11T19:56:04.286Z,34.90
2018-12-11T19:58:33.858Z,23.63
2018-12-11T20:01:03.246Z,26.20
2018-12-11T20:03:32.399Z,12.73
2018-12-11T20:06:01.652Z,9.93
2018-12-11T20:08:31.154Z,14.07
2018-12-11T20:11:00.716Z,17.23
2018-12-11T20:13:29.918Z,8.83
2018-12-11T20:15:59.918Z,11.43
2018-12-11T20:18:29.108Z,11.10
2018-12-11T20:20:58.341Z,8.13
2018-12-11T20:23:27.555Z,8.90
2018-12-11T20:25:56.783Z,8.37
2018-12-11T20:28:26.032Z,11.53
2018-12-11T20:30:55.131Z,16.43
2018-12-11T20:33:24.373Z,10.80
2018-12-11T20:35:53.605Z,11.47
2018-12-11T20:38:22.901Z,10.40
2018-12-11T20:40:52.133Z,13.33
2018-12-11T20:43:21.350Z,10.77
2018-12-11T20:45:51.122Z,9.53
2018-12-11T20:48:21.113Z,15.90
2018-12-11T20:50:50.383Z,10.23
2018-12-11T20:53:19.593Z,10.07
2018-12-11T20:55:48.666Z,10.93
2018-12-11T20:58:17.808Z,11.13
2018-12-11T21:00:47.085Z,13.50
2018-12-11T21:03:16.315Z,10.03
2018-12-11T21:05:45.556Z,13.10
2018-12-11T21:08:14.750Z,10.33
2018-12-11T21:10:43.932Z,7.70
2018-12-11T21:13:13.140Z,11.63
2018-12-11T21:15:42.343Z,9.80
2018-12-11T21:18:11.419Z,10.00
2018-12-11T21:20:40.699Z,11.20
2018-12-11T21:23:09.975Z,10.33
2018-12-11T21:25:39.293Z,7.93
2018-12-11T21:28:08.573Z,7.67
2018-12-11T21:30:37.775Z,7.60
2018-12-11T21:33:07.174Z,7.73
2018-12-11T21:35:36.464Z,10.33
2018-12-11T21:38:05.684Z,10.10
2018-12-11T21:40:34.929Z,8.97
2018-12-11T21:43:04.167Z,10.20
2018-12-11T21:45:33.423Z,8.80
2018-12-11T21:48:08.905Z,10.70
2018-12-11T21:50:38.128Z,8.87
2018-12-11T21:53:07.398Z,12.60
2018-12-11T21:55:36.695Z,15.60
2018-12-11T21:58:05.891Z,13.33
2018-12-11T22:00:35.031Z,12.00
2018-12-11T22:03:04.296Z,18.53
2018-12-11T22:05:33.456Z,19.57
2018-12-11T22:08:02.629Z,12.00
2018-12-11T22:10:31.810Z,17.67
2018-12-11T22:13:00.934Z,12.37
2018-12-11T22:15:30.116Z,11.90
2018-12-11T22:17:59.185Z,13.67
2018-12-11T22:20:28.375Z,12.07
2018-12-11T22:22:57.689Z,10.53
2018-12-11T22:25:26.927Z,13.50
2018-12-11T22:27:56.127Z,10.00
2018-12-11T22:30:25.430Z,12.47
2018-12-11T22:32:54.540Z,12.57
2018-12-11T22:35:23.751Z,9.67
2018-12-11T22:37:53.030Z,10.00
2018-12-11T22:40:22.202Z,8.53
2018-12-11T22:42:51.398Z,9.50
2018-12-11T22:45:20.613Z,10.37
2018-12-11T22:47:49.800Z,9.07
2018-12-11T22:50:19.066Z,11.13
2018-12-11T22:52:48.286Z,8.77
2018-12-11T22:55:17.411Z,8.23
2018-12-11T22:57:47.042Z,12.63
2018-12-11T23:00:16.390Z,7.30
2018-12-11T23:02:45.675Z,8.30
2018-12-11T23:05:14.900Z,8.50
2018-12-11T23:07:44.131Z,9.30
2018-12-11T23:10:13.425Z,7.07
2018-12-11T23:12:42.648Z,9.00
2018-12-11T23:15:11.954Z,10.03
2018-12-11T23:17:41.115Z,7.73
2018-12-11T23:20:10.416Z,7.40
2018-12-11T23:22:39.568Z,7.40
2018-12-11T23:25:09.332Z,10.93
2018-12-11T23:27:38.536Z,6.13
2018-12-11T23:30:07.848Z,10.90
2018-12-11T23:32:36.984Z,6.87
2018-12-11T23:35:07.186Z,7.33
2018-12-11T23:37:36.396Z,8.53
2018-12-11T23:40:06.397Z,7.73
2018-12-11T23:42:35.736Z,14.37
2018-12-11T23:45:05.783Z,5.97
2018-12-11T23:47:34.976Z,5.43
2018-12-11T23:50:04.345Z,5.63
2018-12-11T23:52:33.512Z,14.73
2018-12-11T23:55:02.654Z,9.70
2018-12-11T23:57:31.810Z,5.13
